Time;durP1;ratioP1;P1;durP2;ratioP2;P2;SDS_P1;SDS_P2;PMS_P1;PMS_P2;Temp;Humidity;BMP_temperature;BMP_pressure;BME280_temperature;BME280_humidity;BME280_pressure;Samples;Min_cycle;Max_cycle;Signal;HPM_P1;HPM_P2
2023/05/06 00:00:04;;;;;;;24.75;16.17;;;;;;;;;;2566627;23;20027;-88
2023/05/06 00:01:25;;;;;;;23.85;15.80;;;;;;;;;;2564257;23;20012;-87
2023/05/06 00:02:46;;;;;;;24.08;16.17;;;;;;;;;;2568332;22;20016;-87
2023/05/06 00:04:07;;;;;;;22.60;15.35;;;;;;;;;;2565397;23;20024;-87
2023/05/06 00:05:28;;;;;;;26.45;15.73;;;;;;;;;;2568473;23;20004;-87
2023/05/06 00:06:50;;;;;;;24.00;16.02;;;;;;;;;;2566743;23;20079;-88
2023/05/06 00:08:11;;;;;;;24.90;14.95;;;;;;;;;;2567317;23;20008;-87
2023/05/06 00:09:32;;;;;;;29.63;16.45;;;;;;;;;;2565068;23;20040;-87
2023/05/06 00:10:53;;;;;;;27.77;16.25;;;;;;;;;;2568114;22;20347;-88
2023/05/06 00:12:13;;;;;;;27.08;16.27;;;;;;;;;;2565719;23;20016;-87
2023/05/06 00:13:34;;;;;;;25.40;16.17;;;;;;;;;;2560569;23;20028;-87
2023/05/06 00:14:55;;;;;;;27.02;16.10;;;;;;;;;;2566032;23;20012;-88
2023/05/06 00:16:16;;;;;;;23.60;15.07;;;;;;;;;;2567166;23;20012;-87
2023/05/06 00:17:37;;;;;;;23.75;15.63;;;;;;;;;;2564785;23;20009;-87
2023/05/06 00:18:58;;;;;;;23.95;15.95;;;;;;;;;;2568715;22;20020;-88
2023/05/06 00:20:19;;;;;;;23.88;16.50;;;;;;;;;;2567006;23;20009;-87
2023/05/06 00:21:40;;;;;;;23.90;15.88;;;;;;;;;;2567040;23;20020;-88
2023/05/06 00:23:01;;;;;;;28.33;16.63;;;;;;;;;;2566500;23;20024;-88
2023/05/06 00:24:22;;;;;;;25.95;16.83;;;;;;;;;;2566624;23;20081;-88
2023/05/06 00:25:43;;;;;;;28.35;18.00;;;;;;;;;;2566632;23;20528;-88
2023/05/06 00:27:04;;;;;;;24.98;17.13;;;;;;;;;;2568112;22;20019;-88
2023/05/06 00:28:28;;;;;;;26.73;17.85;;;;;;;;;;2564347;23;20103;-88
2023/05/06 00:29:50;;;;;;;27.60;16.38;;;;;;;;;;2568419;23;20023;-88
2023/05/06 00:31:11;;;;;;;;;;;;;;;;;;2568091;23;20005;-88
2023/05/06 00:32:31;;;;;;;27.67;16.80;;;;;;;;;;2577892;23;19919;-88
2023/05/06 00:33:52;;;;;;;24.55;15.68;;;;;;;;;;2568282;23;20091;-88
2023/05/06 00:35:13;;;;;;;27.60;17.10;;;;;;;;;;2564305;23;20020;-87
2023/05/06 00:36:35;;;;;;;26.92;17.13;;;;;;;;;;2568329;23;20016;-88
2023/05/06 00:37:56;;;;;;;34.90;19.25;;;;;;;;;;2566474;23;20012;-88
2023/05/06 00:39:17;;;;;;;28.00;17.92;;;;;;;;;;2566979;23;20020;-88
2023/05/06 00:40:40;;;;;;;25.35;17.27;;;;;;;;;;2565387;23;20334;-88
2023/05/06 00:42:01;;;;;;;28.42;18.67;;;;;;;;;;2567838;22;20036;-88
2023/05/06 00:43:22;;;;;;;29.20;17.98;;;;;;;;;;2565723;23;20008;-88
2023/05/06 00:44:43;;;;;;;36.53;20.77;;;;;;;;;;2569093;23;20020;-87
2023/05/06 00:46:05;;;;;;;30.33;19.33;;;;;;;;;;2566639;23;20012;-88
2023/05/06 00:47:26;;;;;;;29.67;18.42;;;;;;;;;;2567927;23;20012;-88
2023/05/06 00:48:47;;;;;;;31.65;19.48;;;;;;;;;;2564923;23;20009;-89
2023/05/06 00:50:08;;;;;;;32.20;19.85;;;;;;;;;;2568552;22;20331;-88
2023/05/06 00:51:29;;;;;;;33.03;19.73;;;;;;;;;;2553129;23;20009;-88
2023/05/06 00:52:50;;;;;;;34.72;19.92;;;;;;;;;;2565467;23;20020;-88
2023/05/06 00:54:12;;;;;;;36.55;21.10;;;;;;;;;;2566229;23;20004;-87
2023/05/06 00:55:33;;;;;;;31.80;18.85;;;;;;;;;;2566755;23;20004;-87
2023/05/06 00:56:54;;;;;;;30.65;18.67;;;;;;;;;;2564915;23;20004;-88
2023/05/06 00:58:14;;;;;;;31.73;19.70;;;;;;;;;;2567495;22;20012;-88
2023/05/06 00:59:36;;;;;;;31.05;19.10;;;;;;;;;;2565206;23;20012;-88
2023/05/06 01:00:57;;;;;;;33.55;19.80;;;;;;;;;;2568416;23;20008;-91
2023/05/06 01:02:18;;;;;;;28.67;17.92;;;;;;;;;;2564878;23;20025;-91
2023/05/06 01:03:39;;;;;;;27.92;17.92;;;;;;;;;;2566579;23;20162;-92
2023/05/06 01:04:59;;;;;;;25.48;17.33;;;;;;;;;;2568425;22;20015;-92
2023/05/06 01:06:24;;;;;;;30.13;18.40;;;;;;;;;;2559989;23;20024;-91
2023/05/06 01:07:57;;;;;;;27.98;17.55;;;;;;;;;;2567504;23;20012;-91
2023/05/06 01:09:18;;;;;;;;;;;;;;;;;;2559337;23;20012;-91
2023/05/06 01:10:52;;;;;;;27.70;18.00;;;;;;;;;;2579078;23;19995;-91
2023/05/06 01:12:23;;;;;;;29.30;18.38;;;;;;;;;;2566605;23;20009;-91
2023/05/06 01:13:55;;;;;;;27.52;17.38;;;;;;;;;;2570939;23;20009;-90
2023/05/06 01:15:19;;;;;;;25.65;16.48;;;;;;;;;;2566484;23;20004;-91
2023/05/06 01:16:41;;;;;;;24.75;16.02;;;;;;;;;;2569319;23;20008;-91
2023/05/06 01:18:06;;;;;;;23.83;15.00;;;;;;;;;;2569095;23;20009;-91
2023/05/06 01:19:37;;;;;;;24.35;16.23;;;;;;;;;;2568129;23;20405;-90
2023/05/06 01:20:59;;;;;;;29.15;18.52;;;;;;;;;;2571093;23;20020;-91
2023/05/06 01:22:19;;;;;;;24.37;17.13;;;;;;;;;;2575383;23;20020;-90
2023/05/06 01:23:54;;;;;;;58.33;22.77;;;;;;;;;;2568644;23;20012;-91
2023/05/06 01:25:21;;;;;;;31.27;18.75;;;;;;;;;;2578163;23;20280;-91
2023/05/06 01:26:42;;;;;;;27.25;17.95;;;;;;;;;;2570435;23;20016;-90
2023/05/06 01:28:06;;;;;;;28.23;16.85;;;;;;;;;;2575318;23;20514;-91
2023/05/06 01:29:27;;;;;;;30.90;17.92;;;;;;;;;;2569478;23;20054;-90
2023/05/06 01:30:51;;;;;;;25.02;16.95;;;;;;;;;;2576504;23;20330;-91
2023/05/06 01:32:18;;;;;;;27.48;16.92;;;;;;;;;;2572139;23;20012;-90
2023/05/06 01:33:43;;;;;;;28.35;17.25;;;;;;;;;;2564906;23;20442;-91
2023/05/06 01:35:23;;;;;;;23.92;16.73;;;;;;;;;;2565701;23;20008;-91
2023/05/06 01:37:00;;;;;;;26.08;16.52;;;;;;;;;;2559584;23;20009;-91
2023/05/06 01:38:40;;;;;;;24.00;16.25;;;;;;;;;;2568836;23;20045;-91
2023/05/06 01:40:02;;;;;;;55.42;16.23;;;;;;;;;;2571580;22;20012;-90
2023/05/06 01:41:23;;;;;;;55.75;16.25;;;;;;;;;;2556001;23;20470;-91
2023/05/06 01:42:46;;;;;;;203.13;21.20;;;;;;;;;;2566169;23;20027;-91
2023/05/06 01:44:07;;;;;;;47.00;14.75;;;;;;;;;;2565507;23;20020;-92
2023/05/06 01:45:30;;;;;;;75.95;14.40;;;;;;;;;;2565929;23;20013;-91
2023/05/06 01:46:52;;;;;;;100.93;16.88;;;;;;;;;;2570097;22;20009;-91
2023/05/06 01:48:13;;;;;;;37.45;15.23;;;;;;;;;;2568732;22;20008;-91
2023/05/06 01:49:34;;;;;;;35.67;15.05;;;;;;;;;;2560556;23;20013;-90
2023/05/06 01:50:55;;;;;;;40.90;15.95;;;;;;;;;;2566103;23;20008;-90
2023/05/06 01:52:16;;;;;;;19.42;14.32;;;;;;;;;;2567227;23;20123;-91
2023/05/06 01:53:37;;;;;;;21.63;15.85;;;;;;;;;;2565983;23;20020;-91
2023/05/06 01:54:58;;;;;;;22.42;15.35;;;;;;;;;;2570026;22;20139;-91
2023/05/06 01:56:19;;;;;;;27.52;16.20;;;;;;;;;;2566424;23;20078;-90
2023/05/06 01:57:40;;;;;;;32.92;16.15;;;;;;;;;;2570580;23;20016;-90
2023/05/06 01:59:01;;;;;;;31.95;17.05;;;;;;;;;;2566667;23;20019;-91
2023/05/06 02:00:23;;;;;;;20.70;14.45;;;;;;;;;;2568686;23;20005;-90
2023/05/06 02:01:44;;;;;;;36.60;16.27;;;;;;;;;;2564177;23;20012;-90
2023/05/06 02:03:05;;;;;;;22.10;14.13;;;;;;;;;;2569765;22;20005;-90
2023/05/06 02:04:26;;;;;;;21.50;14.55;;;;;;;;;;2566795;23;20009;-91
2023/05/06 02:05:47;;;;;;;25.55;15.13;;;;;;;;;;2570589;23;20013;-91
2023/05/06 02:07:08;;;;;;;45.97;14.57;;;;;;;;;;2566896;23;20008;-91
2023/05/06 02:08:29;;;;;;;30.60;13.93;;;;;;;;;;2567191;23;20008;-90
2023/05/06 02:09:50;;;;;;;25.77;14.15;;;;;;;;;;2564782;23;20342;-91
2023/05/06 02:11:11;;;;;;;27.60;14.85;;;;;;;;;;2568246;22;20024;-91
2023/05/06 02:12:32;;;;;;;34.15;14.75;;;;;;;;;;2565367;23;20115;-91
2023/05/06 02:13:53;;;;;;;26.88;15.57;;;;;;;;;;2568151;23;20012;-90
2023/05/06 02:15:14;;;;;;;32.55;17.02;;;;;;;;;;2566804;23;20027;-91
2023/05/06 02:16:35;;;;;;;28.77;18.00;;;;;;;;;;2567216;23;20020;-90
2023/05/06 02:17:57;;;;;;;24.60;17.48;;;;;;;;;;2565662;23;20039;-91
2023/05/06 02:19:18;;;;;;;;;;;;;;;;;;2555515;23;20020;-90
2023/05/06 02:20:39;;;;;;;27.00;16.83;;;;;;;;;;2570237;23;19934;-92
2023/05/06 02:22:00;;;;;;;28.35;18.45;;;;;;;;;;2581456;23;20016;-90
2023/05/06 02:23:21;;;;;;;32.05;17.63;;;;;;;;;;2569772;23;20009;-89
2023/05/06 02:24:42;;;;;;;29.50;17.40;;;;;;;;;;2577026;23;20011;-92
2023/05/06 02:26:03;;;;;;;27.17;17.05;;;;;;;;;;2569910;23;20012;-93
2023/05/06 02:27:24;;;;;;;30.48;17.15;;;;;;;;;;2577476;23;20008;-91
2023/05/06 02:28:45;;;;;;;27.40;16.60;;;;;;;;;;2570399;23;20009;-91
2023/05/06 02:30:06;;;;;;;33.17;17.60;;;;;;;;;;2576771;23;20015;-91
2023/05/06 02:31:27;;;;;;;42.45;16.45;;;;;;;;;;2569980;23;20095;-91
2023/05/06 02:32:48;;;;;;;27.85;16.95;;;;;;;;;;2576655;23;20008;-91
2023/05/06 02:34:09;;;;;;;28.38;17.08;;;;;;;;;;2570004;23;20008;-90
2023/05/06 02:35:30;;;;;;;31.13;18.08;;;;;;;;;;2577216;23;20465;-90
2023/05/06 02:36:51;;;;;;;26.25;16.05;;;;;;;;;;2570346;23;20009;-90
2023/05/06 02:38:12;;;;;;;26.50;15.65;;;;;;;;;;2577315;23;20059;-90
2023/05/06 02:39:33;;;;;;;27.27;16.98;;;;;;;;;;2569605;23;20024;-92
2023/05/06 02:40:54;;;;;;;29.90;18.27;;;;;;;;;;2575262;23;20019;-91
2023/05/06 02:42:15;;;;;;;25.65;16.73;;;;;;;;;;2568093;23;20016;-90
2023/05/06 02:43:36;;;;;;;29.42;17.73;;;;;;;;;;2575732;23;20386;-93
2023/05/06 02:44:57;;;;;;;25.50;16.95;;;;;;;;;;2568670;23;20016;-92
2023/05/06 02:46:18;;;;;;;25.98;16.45;;;;;;;;;;2575171;23;20012;-93
2023/05/06 02:47:39;;;;;;;29.75;17.35;;;;;;;;;;2569494;23;20016;-90
2023/05/06 02:49:00;;;;;;;25.67;16.50;;;;;;;;;;2575336;23;20008;-90
2023/05/06 02:50:21;;;;;;;24.02;13.85;;;;;;;;;;2568844;23;20024;-89
2023/05/06 02:51:42;;;;;;;34.00;15.05;;;;;;;;;;2577112;23;20004;-89
2023/05/06 02:53:11;;;;;;;22.85;14.88;;;;;;;;;;2575165;23;19996;-96
2023/05/06 02:54:50;;;;;;;33.00;16.42;;;;;;;;;;2573039;22;20348;-96
2023/05/06 02:56:11;;;;;;;22.98;13.85;;;;;;;;;;2585520;22;20000;-96
2023/05/06 02:57:33;;;;;;;103.78;15.90;;;;;;;;;;2576627;23;20019;-96
2023/05/06 02:58:54;;;;;;;71.55;15.13;;;;;;;;;;2571634;23;20411;-96
2023/05/06 03:00:18;;;;;;;155.18;18.67;;;;;;;;;;2573588;23;20036;-96
2023/05/06 03:01:39;;;;;;;129.98;17.27;;;;;;;;;;2562135;23;20020;-91
2023/05/06 03:03:00;;;;;;;76.77;15.53;;;;;;;;;;2565795;23;20012;-90
2023/05/06 03:04:21;;;;;;;58.35;14.70;;;;;;;;;;2555345;23;20372;-90
2023/05/06 03:05:42;;;;;;;21.90;14.20;;;;;;;;;;2567815;23;20016;-90
2023/05/06 03:07:03;;;;;;;25.45;14.50;;;;;;;;;;2569200;23;20126;-91
2023/05/06 03:08:24;;;;;;;23.25;16.02;;;;;;;;;;2554952;23;20013;-91
2023/05/06 03:09:45;;;;;;;26.15;16.42;;;;;;;;;;2567106;23;20016;-92
2023/05/06 03:11:05;;;;;;;27.95;16.13;;;;;;;;;;2565580;23;20016;-91
2023/05/06 03:12:26;;;;;;;25.60;15.88;;;;;;;;;;2555221;23;20020;-87
2023/05/06 03:13:47;;;;;;;24.88;15.60;;;;;;;;;;2565588;23;20067;-88
2023/05/06 03:15:08;;;;;;;25.85;16.27;;;;;;;;;;2568010;23;20035;-88
2023/05/06 03:16:29;;;;;;;33.38;15.77;;;;;;;;;;2565257;23;20009;-87
2023/05/06 03:17:50;;;;;;;23.75;15.27;;;;;;;;;;2565606;23;20005;-87
2023/05/06 03:19:11;;;;;;;28.35;16.17;;;;;;;;;;2564144;23;20116;-87
2023/05/06 03:20:32;;;;;;;25.10;16.13;;;;;;;;;;2565720;23;20016;-87
2023/05/06 03:21:53;;;;;;;23.63;15.70;;;;;;;;;;2564598;23;20379;-87
2023/05/06 03:23:14;;;;;;;25.95;16.38;;;;;;;;;;2567636;23;20399;-87
2023/05/06 03:24:35;;;;;;;25.90;16.00;;;;;;;;;;2564958;23;20100;-88
2023/05/06 03:25:56;;;;;;;31.85;16.00;;;;;;;;;;2565482;23;20342;-87
2023/05/06 03:27:17;;;;;;;28.60;17.67;;;;;;;;;;2564025;23;20020;-87
2023/05/06 03:28:38;;;;;;;32.65;18.23;;;;;;;;;;2567280;22;20019;-87
2023/05/06 03:29:59;;;;;;;26.45;16.67;;;;;;;;;;2566304;23;20284;-87
2023/05/06 03:31:20;;;;;;;32.58;19.17;;;;;;;;;;2568259;23;20008;-87
2023/05/06 03:32:41;;;;;;;30.08;18.33;;;;;;;;;;2564576;23;20039;-86
2023/05/06 03:34:02;;;;;;;30.55;17.88;;;;;;;;;;2566529;23;20012;-87
2023/05/06 03:35:22;;;;;;;31.08;19.13;;;;;;;;;;2564203;23;20012;-86
2023/05/06 03:36:44;;;;;;;28.50;16.75;;;;;;;;;;2568282;22;20174;-87
2023/05/06 03:38:05;;;;;;;26.20;16.73;;;;;;;;;;2565906;23;20027;-87
2023/05/06 03:39:26;;;;;;;26.17;16.20;;;;;;;;;;2557958;23;20490;-87
2023/05/06 03:40:47;;;;;;;28.35;14.38;;;;;;;;;;2566081;23;20004;-87
2023/05/06 03:42:08;;;;;;;26.15;15.05;;;;;;;;;;2567247;23;20076;-87
2023/05/06 03:43:29;;;;;;;25.83;13.90;;;;;;;;;;2563845;23;20009;-87
2023/05/06 03:44:50;;;;;;;29.05;14.05;;;;;;;;;;2568203;22;20004;-87
2023/05/06 03:46:11;;;;;;;24.23;13.05;;;;;;;;;;2566337;23;20005;-87
2023/05/06 03:47:32;;;;;;;26.02;13.07;;;;;;;;;;2559876;23;20398;-88
2023/05/06 03:48:53;;;;;;;26.90;13.32;;;;;;;;;;2566548;23;20008;-88
2023/05/06 03:50:14;;;;;;;24.48;14.05;;;;;;;;;;2566597;23;20020;-87
2023/05/06 03:51:35;;;;;;;23.77;13.68;;;;;;;;;;2565032;23;20008;-85
2023/05/06 03:52:56;;;;;;;21.90;14.02;;;;;;;;;;2567652;22;20009;-87
2023/05/06 03:54:17;;;;;;;16.67;12.77;;;;;;;;;;2566855;23;20012;-88
2023/05/06 03:55:38;;;;;;;22.17;14.13;;;;;;;;;;2568587;23;20024;-88
2023/05/06 03:56:58;;;;;;;25.10;14.38;;;;;;;;;;2567606;23;20423;-87
2023/05/06 03:58:19;;;;;;;28.40;15.35;;;;;;;;;;2566732;23;20013;-88
2023/05/06 03:59:40;;;;;;;122.25;18.65;;;;;;;;;;2566324;23;20015;-88
2023/05/06 04:01:01;;;;;;;26.23;16.63;;;;;;;;;;2567997;22;20024;-88
2023/05/06 04:02:22;;;;;;;22.90;14.30;;;;;;;;;;2566034;23;20016;-88
2023/05/06 04:03:43;;;;;;;24.90;14.80;;;;;;;;;;2568796;23;20009;-88
2023/05/06 04:05:05;;;;;;;37.30;16.38;;;;;;;;;;2567421;23;20013;-88
2023/05/06 04:06:25;;;;;;;57.20;18.27;;;;;;;;;;2566274;23;20008;-89
2023/05/06 04:07:46;;;;;;;26.08;14.95;;;;;;;;;;2566231;23;20038;-89
2023/05/06 04:09:08;;;;;;;25.92;16.08;;;;;;;;;;2568390;22;20031;-87
2023/05/06 04:10:29;;;;;;;29.15;17.52;;;;;;;;;;2566770;23;20116;-88
2023/05/06 04:11:50;;;;;;;35.05;18.23;;;;;;;;;;2568426;23;20230;-87
2023/05/06 04:13:11;;;;;;;32.35;18.45;;;;;;;;;;2565514;23;20075;-86
2023/05/06 04:14:32;;;;;;;30.77;18.42;;;;;;;;;;2566780;23;20430;-87
2023/05/06 04:15:53;;;;;;;31.50;20.55;;;;;;;;;;2565592;23;20014;-86
2023/05/06 04:17:14;;;;;;;37.00;20.85;;;;;;;;;;2568216;22;20477;-88
2023/05/06 04:18:36;;;;;;;32.38;19.30;;;;;;;;;;2566786;23;20009;-87
2023/05/06 04:19:57;;;;;;;41.33;21.58;;;;;;;;;;2568960;23;20019;-87
2023/05/06 04:21:18;;;;;;;34.28;19.63;;;;;;;;;;2566920;23;20376;-88
2023/05/06 04:22:39;;;;;;;46.28;23.00;;;;;;;;;;2564735;23;20103;-87
2023/05/06 04:23:59;;;;;;;31.20;19.95;;;;;;;;;;2564753;23;20017;-87
2023/05/06 04:25:21;;;;;;;37.00;19.75;;;;;;;;;;2555048;23;20092;-87
2023/05/06 04:26:43;;;;;;;34.45;20.40;;;;;;;;;;2564260;23;20008;-87
2023/05/06 04:28:04;;;;;;;34.92;20.52;;;;;;;;;;2567315;23;20020;-86
2023/05/06 04:29:25;;;;;;;41.72;21.98;;;;;;;;;;2566293;23;20019;-86
2023/05/06 04:30:46;;;;;;;35.50;19.92;;;;;;;;;;2566335;23;20472;-87
2023/05/06 04:32:10;;;;;;;38.08;20.58;;;;;;;;;;2565603;23;20005;-86
2023/05/06 04:33:31;;;;;;;36.20;20.50;;;;;;;;;;2566257;23;20077;-87
2023/05/06 04:34:52;;;;;;;34.58;19.67;;;;;;;;;;2566861;23;20008;-87
2023/05/06 04:36:13;;;;;;;34.10;20.25;;;;;;;;;;2557064;23;20009;-86
2023/05/06 04:37:34;;;;;;;33.60;20.25;;;;;;;;;;2566908;23;20012;-87
2023/05/06 04:38:55;;;;;;;33.22;20.80;;;;;;;;;;2566145;23;20024;-87
2023/05/06 04:40:17;;;;;;;43.97;21.23;;;;;;;;;;2564721;23;20051;-87
2023/05/06 04:41:38;;;;;;;32.40;19.23;;;;;;;;;;2567738;22;20657;-88
2023/05/06 04:42:59;;;;;;;29.80;17.90;;;;;;;;;;2562956;23;20022;-87
2023/05/06 04:44:21;;;;;;;30.83;18.20;;;;;;;;;;2570496;23;20059;-87
2023/05/06 04:45:47;;;;;;;28.90;17.33;;;;;;;;;;2566210;23;20016;-87
2023/05/06 04:47:08;;;;;;;27.17;17.55;;;;;;;;;;2567673;23;20019;-86
2023/05/06 04:48:29;;;;;;;26.73;17.15;;;;;;;;;;2564752;23;20024;-86
2023/05/06 04:49:50;;;;;;;28.02;17.00;;;;;;;;;;2568050;22;20311;-87
2023/05/06 04:51:12;;;;;;;25.83;16.75;;;;;;;;;;2563765;23;20009;-87
2023/05/06 04:52:33;;;;;;;27.00;17.65;;;;;;;;;;2547311;23;20188;-87
2023/05/06 04:53:55;;;;;;;25.80;16.83;;;;;;;;;;2577795;23;20019;-87
2023/05/06 04:55:16;;;;;;;;;;;;;;;;;;2568259;23;20088;-87
2023/05/06 04:56:37;;;;;;;24.08;15.20;;;;;;;;;;2578574;23;19982;-87
2023/05/06 04:57:58;;;;;;;26.55;16.15;;;;;;;;;;2567099;23;20012;-87
2023/05/06 04:59:19;;;;;;;24.63;16.88;;;;;;;;;;2567368;23;20016;-87
2023/05/06 05:00:39;;;;;;;27.20;18.40;;;;;;;;;;2568773;23;20019;-87
2023/05/06 05:02:00;;;;;;;28.60;18.33;;;;;;;;;;2567282;23;20012;-87
2023/05/06 05:03:21;;;;;;;30.30;17.77;;;;;;;;;;2565225;23;20059;-87
2023/05/06 05:04:42;;;;;;;29.15;18.10;;;;;;;;;;2565986;23;20013;-87
2023/05/06 05:06:03;;;;;;;28.33;17.30;;;;;;;;;;2566461;23;20019;-87
2023/05/06 05:07:24;;;;;;;28.13;19.00;;;;;;;;;;2564953;23;20059;-87
2023/05/06 05:08:45;;;;;;;32.80;19.88;;;;;;;;;;2567431;23;20008;-87
2023/05/06 05:10:08;;;;;;;33.95;21.05;;;;;;;;;;2566982;23;20012;-86
2023/05/06 05:11:28;;;;;;;;;;;;;;;;;;2567338;23;20014;-87
2023/05/06 05:12:49;;;;;;;46.10;24.23;;;;;;;;;;2577225;23;19914;-87
2023/05/06 05:14:10;;;;;;;43.50;22.83;;;;;;;;;;2568050;23;20021;-87
2023/05/06 05:15:31;;;;;;;44.08;23.27;;;;;;;;;;2576953;23;20008;-88
2023/05/06 05:16:52;;;;;;;40.70;23.42;;;;;;;;;;2568074;23;20005;-87
2023/05/06 05:18:14;;;;;;;37.42;22.20;;;;;;;;;;2576503;23;20004;-87
2023/05/06 05:19:38;;;;;;;43.33;23.40;;;;;;;;;;2568576;23;20367;-87
2023/05/06 05:20:59;;;;;;;41.55;22.73;;;;;;;;;;2567143;23;20015;-87
2023/05/06 05:22:20;;;;;;;40.28;23.27;;;;;;;;;;2566607;23;20008;-88
2023/05/06 05:23:41;;;;;;;39.78;22.83;;;;;;;;;;2564443;23;20032;-88
2023/05/06 05:25:02;;;;;;;37.47;22.52;;;;;;;;;;2563948;23;20038;-87
2023/05/06 05:26:23;;;;;;;53.72;25.38;;;;;;;;;;2565947;23;20009;-88
2023/05/06 05:27:44;;;;;;;38.92;23.50;;;;;;;;;;2566020;23;20009;-87
2023/05/06 05:29:05;;;;;;;35.80;21.80;;;;;;;;;;2565095;23;20481;-88
2023/05/06 05:30:26;;;;;;;36.55;22.10;;;;;;;;;;2555570;23;20068;-87
2023/05/06 05:31:47;;;;;;;40.58;21.75;;;;;;;;;;2565314;23;20004;-87
2023/05/06 05:33:08;;;;;;;39.47;22.88;;;;;;;;;;2566381;23;20283;-88
2023/05/06 05:34:29;;;;;;;43.17;22.92;;;;;;;;;;2566353;23;20021;-88
2023/05/06 05:35:51;;;;;;;36.75;21.90;;;;;;;;;;2565931;23;20009;-87
2023/05/06 05:37:12;;;;;;;41.95;23.38;;;;;;;;;;2564981;23;20008;-87
2023/05/06 05:38:33;;;;;;;39.42;22.77;;;;;;;;;;2566979;23;20004;-87
2023/05/06 05:39:54;;;;;;;37.08;22.25;;;;;;;;;;2566209;23;20008;-88
2023/05/06 05:41:15;;;;;;;40.25;23.23;;;;;;;;;;2568977;23;20004;-88
2023/05/06 05:42:36;;;;;;;40.28;23.08;;;;;;;;;;2564908;23;20012;-87
2023/05/06 05:43:57;;;;;;;39.53;23.30;;;;;;;;;;2564217;23;20484;-87
2023/05/06 05:45:19;;;;;;;37.47;22.65;;;;;;;;;;2564701;23;20092;-87
2023/05/06 05:46:41;;;;;;;36.13;23.48;;;;;;;;;;2566083;23;20012;-87
2023/05/06 05:48:02;;;;;;;42.40;24.33;;;;;;;;;;2566342;23;20005;-87
2023/05/06 05:49:23;;;;;;;38.20;22.48;;;;;;;;;;2568275;23;20013;-87
2023/05/06 05:50:45;;;;;;;39.97;22.00;;;;;;;;;;2566520;23;20020;-87
2023/05/06 05:52:06;;;;;;;42.67;23.43;;;;;;;;;;2566468;23;20004;-87
2023/05/06 05:53:27;;;;;;;38.60;22.13;;;;;;;;;;2563485;23;20012;-87
2023/05/06 05:54:48;;;;;;;40.33;21.42;;;;;;;;;;2553446;23;20009;-87
2023/05/06 05:56:09;;;;;;;41.80;21.50;;;;;;;;;;2561500;23;20016;-88
2023/05/06 05:57:30;;;;;;;39.20;21.88;;;;;;;;;;2563193;23;20031;-88
2023/05/06 05:58:52;;;;;;;43.72;23.80;;;;;;;;;;2577208;23;20015;-88
2023/05/06 06:00:13;;;;;;;41.63;24.08;;;;;;;;;;2570329;22;20088;-87
2023/05/06 06:01:34;;;;;;;40.72;22.42;;;;;;;;;;2559126;23;20009;-86
2023/05/06 06:02:55;;;;;;;36.50;21.30;;;;;;;;;;2563263;23;20128;-88
2023/05/06 06:04:16;;;;;;;41.25;22.80;;;;;;;;;;2566584;23;20457;-87
2023/05/06 06:05:37;;;;;;;37.80;21.90;;;;;;;;;;2558348;23;20008;-88
2023/05/06 06:06:58;;;;;;;43.38;23.52;;;;;;;;;;2565380;23;20031;-86
2023/05/06 06:08:19;;;;;;;41.95;25.10;;;;;;;;;;2553846;23;20012;-88
2023/05/06 06:09:40;;;;;;;40.80;25.33;;;;;;;;;;2564120;23;20028;-88
2023/05/06 06:11:03;;;;;;;42.28;25.10;;;;;;;;;;2568405;23;20017;-88
2023/05/06 06:12:24;;;;;;;40.17;25.00;;;;;;;;;;2566248;23;20008;-88
2023/05/06 06:13:45;;;;;;;42.05;26.50;;;;;;;;;;2564844;23;20016;-88
2023/05/06 06:15:06;;;;;;;46.10;26.50;;;;;;;;;;2565297;23;20011;-88
2023/05/06 06:16:27;;;;;;;45.20;27.93;;;;;;;;;;2566554;23;20031;-88
2023/05/06 06:17:48;;;;;;;43.15;28.20;;;;;;;;;;2565274;23;20004;-88
2023/05/06 06:19:09;;;;;;;44.28;28.52;;;;;;;;;;2567510;23;20009;-88
2023/05/06 06:20:30;;;;;;;42.03;27.42;;;;;;;;;;2566584;23;20012;-88
2023/05/06 06:21:51;;;;;;;37.13;24.53;;;;;;;;;;2566771;23;20020;-88
2023/05/06 06:23:12;;;;;;;35.88;26.08;;;;;;;;;;2563997;23;20398;-88
2023/05/06 06:24:33;;;;;;;39.30;25.20;;;;;;;;;;2558061;23;20112;-88
2023/05/06 06:25:54;;;;;;;42.40;26.47;;;;;;;;;;2566621;23;20009;-88
2023/05/06 06:27:15;;;;;;;39.00;27.02;;;;;;;;;;2556321;23;20398;-88
2023/05/06 06:28:36;;;;;;;32.72;24.38;;;;;;;;;;2558369;23;20016;-88
2023/05/06 06:29:57;;;;;;;42.65;25.67;;;;;;;;;;2565996;23;20016;-87
2023/05/06 06:31:18;;;;;;;37.28;23.20;;;;;;;;;;2563951;23;20432;-87
2023/05/06 06:32:46;;;;;;;38.83;24.98;;;;;;;;;;2567675;22;20127;-87
2023/05/06 06:34:08;;;;;;;35.10;24.90;;;;;;;;;;2565079;23;20013;-88
2023/05/06 06:35:29;;;;;;;38.78;23.95;;;;;;;;;;2568685;23;20046;-87
2023/05/06 06:36:50;;;;;;;35.92;25.02;;;;;;;;;;2565525;23;20370;-88
2023/05/06 06:38:11;;;;;;;32.78;23.33;;;;;;;;;;2566893;23;20009;-86
2023/05/06 06:39:32;;;;;;;36.85;23.90;;;;;;;;;;2563796;23;20005;-88
2023/05/06 06:40:53;;;;;;;35.35;24.10;;;;;;;;;;2567386;22;20056;-87
2023/05/06 06:42:14;;;;;;;38.08;23.13;;;;;;;;;;2565933;23;20287;-87
2023/05/06 06:43:35;;;;;;;33.05;22.88;;;;;;;;;;2567220;23;20013;-87
2023/05/06 06:44:56;;;;;;;35.85;22.85;;;;;;;;;;2566217;23;20021;-87
2023/05/06 06:46:17;;;;;;;34.75;22.45;;;;;;;;;;2565310;23;20017;-88
2023/05/06 06:47:38;;;;;;;38.77;23.07;;;;;;;;;;2563318;23;20017;-87
2023/05/06 06:49:00;;;;;;;30.63;20.75;;;;;;;;;;2567237;22;20375;-88
2023/05/06 06:50:21;;;;;;;39.55;22.77;;;;;;;;;;2563330;23;20413;-88
2023/05/06 06:51:41;;;;;;;39.92;23.20;;;;;;;;;;2565627;23;20052;-88
2023/05/06 06:53:04;;;;;;;38.75;22.45;;;;;;;;;;2563139;23;20009;-88
2023/05/06 06:54:27;;;;;;;44.33;23.92;;;;;;;;;;2564630;23;20005;-87
2023/05/06 06:55:48;;;;;;;33.70;21.45;;;;;;;;;;2562815;23;20013;-87
2023/05/06 06:57:10;;;;;;;41.85;22.70;;;;;;;;;;2566980;22;20024;-87
2023/05/06 06:58:32;;;;;;;33.85;21.83;;;;;;;;;;2564289;23;20075;-87
2023/05/06 06:59:53;;;;;;;33.28;20.67;;;;;;;;;;2566832;23;20094;-87
2023/05/06 07:01:14;;;;;;;35.90;20.92;;;;;;;;;;2565135;23;20017;-87
2023/05/06 07:02:35;;;;;;;39.47;21.42;;;;;;;;;;2564942;23;20298;-88
2023/05/06 07:03:56;;;;;;;41.53;20.75;;;;;;;;;;2560944;23;20016;-88
2023/05/06 07:05:17;;;;;;;31.98;18.92;;;;;;;;;;2566973;22;20394;-87
2023/05/06 07:06:38;;;;;;;31.67;20.52;;;;;;;;;;2565289;23;20043;-88
2023/05/06 07:07:59;;;;;;;31.05;18.35;;;;;;;;;;2565602;23;20035;-87
2023/05/06 07:09:20;;;;;;;30.17;18.35;;;;;;;;;;2565017;23;20087;-89
2023/05/06 07:10:41;;;;;;;32.30;18.50;;;;;;;;;;2565872;23;20016;-88
2023/05/06 07:12:02;;;;;;;32.35;18.38;;;;;;;;;;2564995;23;20013;-87
2023/05/06 07:13:23;;;;;;;31.75;18.05;;;;;;;;;;2564665;23;20016;-87
2023/05/06 07:14:44;;;;;;;29.02;17.48;;;;;;;;;;2564793;23;20009;-88
2023/05/06 07:16:05;;;;;;;30.77;17.08;;;;;;;;;;2567691;23;20413;-87
2023/05/06 07:17:44;;;;;;;31.88;18.10;;;;;;;;;;2566060;23;20013;-91
2023/05/06 07:20:59;;;;;;;33.10;18.42;;;;;;;;;;2582789;23;20050;-91
2023/05/06 07:22:21;;;;;;;28.00;17.17;;;;;;;;;;2583149;23;20441;-92
2023/05/06 07:23:52;;;;;;;;;;;;;;;;;;;;;
2023/05/06 07:25:24;;;;;;;31.58;18.02;;;;;;;;;;2574138;23;20012;-93
2023/05/06 07:26:50;;;;;;;27.80;17.40;;;;;;;;;;2581808;23;20023;-92
2023/05/06 07:28:14;;;;;;;29.67;18.30;;;;;;;;;;2571644;23;20378;-93
2023/05/06 07:29:37;;;;;;;25.77;17.20;;;;;;;;;;2576299;23;20023;-93
2023/05/06 07:31:01;;;;;;;33.55;18.58;;;;;;;;;;2570594;23;20032;-94
2023/05/06 07:32:24;;;;;;;28.42;17.05;;;;;;;;;;2578658;23;20015;-93
2023/05/06 07:33:46;;;;;;;27.20;16.50;;;;;;;;;;2554802;23;20021;-92
2023/05/06 07:35:15;;;;;;;26.73;17.23;;;;;;;;;;2577537;23;20008;-93
2023/05/06 07:36:42;;;;;;;29.08;18.88;;;;;;;;;;2571087;23;20012;-92
2023/05/06 07:38:10;;;;;;;31.35;20.13;;;;;;;;;;2580351;23;20342;-91
2023/05/06 07:39:37;;;;;;;32.55;17.48;;;;;;;;;;2570647;23;20005;-92
2023/05/06 07:40:58;;;;;;;28.02;18.23;;;;;;;;;;2580708;23;20016;-92
2023/05/06 07:42:20;;;;;;;28.25;17.48;;;;;;;;;;2568484;23;20012;-93
2023/05/06 07:43:41;;;;;;;27.38;16.25;;;;;;;;;;2565769;23;20012;-95
2023/05/06 07:45:02;;;;;;;31.98;17.75;;;;;;;;;;2567533;23;20008;-94
2023/05/06 07:46:23;;;;;;;25.17;16.02;;;;;;;;;;2573849;23;19997;-96
2023/05/06 07:47:44;;;;;;;31.00;16.98;;;;;;;;;;2577818;23;20008;-94
2023/05/06 07:49:05;;;;;;;34.95;18.42;;;;;;;;;;2573722;23;20020;-96
2023/05/06 07:50:26;;;;;;;34.58;19.45;;;;;;;;;;2577106;23;20310;-95
2023/05/06 07:51:47;;;;;;;28.73;17.10;;;;;;;;;;2572924;22;20080;-95
2023/05/06 07:53:16;;;;;;;26.38;16.10;;;;;;;;;;2576225;23;20015;-95
2023/05/06 07:54:37;;;;;;;30.73;17.77;;;;;;;;;;2572883;23;20008;-95
2023/05/06 07:56:00;;;;;;;29.23;17.70;;;;;;;;;;2577078;23;20016;-96
2023/05/06 07:57:24;;;;;;;36.63;19.30;;;;;;;;;;2572676;23;20091;-95
2023/05/06 07:58:45;;;;;;;29.52;17.15;;;;;;;;;;2580096;23;20012;-95